Eighty Four, Pennsylvania
Current Conditions -  °F | °C
As of 8:53 PM on Sunday 21 Dec 2014 (Local Time) from KAGC Reporting Station
Clear Clear  
Wind Chill: 23°   Ceiling: Unl
Heat Index: 28°   Visibility: 8mi
Dew Point: 19°   Wind: 5mph
Humidity: 69%   Direction: 50°NE
Pressure: 30.2"   Gusts: NA
Location:  40.18°N, 80.13°W
Report Text: KAGC 220153Z 05004KT 8SM CLR M02/M07 A3020 RMK AO2 SLP246 T10221072
Loading
Personal Weather Stations






























Interactive Weather Map New forecast layout! Learn more

10-Day Weather Forecast

Advertisements
Track Severe Weather on mobile